createdAt,value
2018-07-19T00:01:28.171Z,89.20
2018-07-19T00:03:56.499Z,88.60
2018-07-19T00:06:24.824Z,87.80
2018-07-19T00:08:53.160Z,87.80
2018-07-19T00:11:21.515Z,87.50
2018-07-19T00:13:49.835Z,87.50
2018-07-19T00:16:18.240Z,87.40
2018-07-19T00:18:47.495Z,88.50
2018-07-19T00:21:15.828Z,89.00
2018-07-19T00:23:44.148Z,88.90
2018-07-19T00:26:13.024Z,88.80
2018-07-19T00:28:41.339Z,90.10
2018-07-19T00:31:09.706Z,90.70
2018-07-19T00:33:38.657Z,90.50
2018-07-19T00:36:07.179Z,90.10
2018-07-19T00:38:35.589Z,89.50
2018-07-19T00:41:04.000Z,89.10
2018-07-19T00:43:33.642Z,89.70
2018-07-19T00:46:01.992Z,89.90
2018-07-19T00:48:30.289Z,88.70
2018-07-19T00:50:58.623Z,90.90
2018-07-19T00:53:26.948Z,91.30
2018-07-19T00:55:55.668Z,91.90
2018-07-19T00:58:24.039Z,91.80
2018-07-19T01:00:52.348Z,91.60
2018-07-19T01:03:20.659Z,91.60
2018-07-19T01:05:48.966Z,91.50
2018-07-19T01:08:17.299Z,91.00
2018-07-19T01:10:45.625Z,91.00
2018-07-19T01:13:13.947Z,90.60
2018-07-19T01:15:42.266Z,90.90
2018-07-19T01:18:10.596Z,91.30
2018-07-19T01:20:39.033Z,91.20
2018-07-19T01:23:07.374Z,90.90
2018-07-19T01:25:36.256Z,90.80
2018-07-19T01:28:04.588Z,90.90
2018-07-19T01:30:32.920Z,90.80
2018-07-19T01:33:01.215Z,90.60
2018-07-19T01:35:29.560Z,90.90
2018-07-19T01:37:57.876Z,91.00
2018-07-19T01:40:26.232Z,91.20
2018-07-19T01:42:54.533Z,91.30
2018-07-19T01:45:22.852Z,91.50
2018-07-19T01:47:51.175Z,91.40
2018-07-19T01:50:19.548Z,91.30
2018-07-19T01:52:47.867Z,91.40
2018-07-19T01:55:16.187Z,91.40
2018-07-19T01:57:45.220Z,91.30
2018-07-19T02:00:13.596Z,91.30
2018-07-19T02:02:41.869Z,91.40
2018-07-19T02:05:10.226Z,90.50
2018-07-19T02:07:38.511Z,91.00
2018-07-19T02:10:06.908Z,90.90
2018-07-19T02:12:35.228Z,91.20
2018-07-19T02:15:04.127Z,91.70
2018-07-19T02:17:32.443Z,92.20
2018-07-19T02:20:00.771Z,92.30
2018-07-19T02:22:29.100Z,92.20
2018-07-19T02:24:57.447Z,91.80
2018-07-19T02:27:25.764Z,91.80
2018-07-19T02:29:54.091Z,92.10
2018-07-19T02:32:22.396Z,92.00
2018-07-19T02:34:50.728Z,92.80
2018-07-19T02:37:19.036Z,94.40
2018-07-19T02:39:47.360Z,95.30
2018-07-19T02:42:15.683Z,95.50
2018-07-19T02:44:43.987Z,95.60
2018-07-19T02:47:12.292Z,95.10
2018-07-19T02:49:40.628Z,94.60
2018-07-19T02:52:08.940Z,94.10
2018-07-19T02:54:37.254Z,93.60
2018-07-19T02:57:05.583Z,95.00
2018-07-19T02:59:33.881Z,94.70
2018-07-19T03:02:02.212Z,94.20
2018-07-19T03:04:30.511Z,93.60
2018-07-19T03:06:58.824Z,93.40
2018-07-19T03:09:27.143Z,93.60
2018-07-19T03:11:55.459Z,93.80
2018-07-19T03:14:24.771Z,93.70
2018-07-19T03:16:53.111Z,94.30
2018-07-19T03:19:21.439Z,94.30
2018-07-19T03:21:54.212Z,94.30
2018-07-19T03:24:22.522Z,93.90
2018-07-19T03:26:50.827Z,94.10
2018-07-19T03:29:19.172Z,93.90
2018-07-19T03:31:47.509Z,93.80
2018-07-19T03:34:15.808Z,94.00
2018-07-19T03:36:44.119Z,94.10
2018-07-19T03:39:12.435Z,93.80
2018-07-19T03:41:40.776Z,93.60
2018-07-19T03:44:09.615Z,93.80
2018-07-19T03:46:37.963Z,94.40
2018-07-19T03:49:06.307Z,94.70
2018-07-19T03:51:34.640Z,94.80
2018-07-19T03:54:02.984Z,94.90
2018-07-19T03:56:31.299Z,95.00
2018-07-19T03:58:59.608Z,95.20
2018-07-19T04:01:28.620Z,95.30
2018-07-19T04:03:56.954Z,95.30
2018-07-19T04:06:25.259Z,95.50
2018-07-19T04:08:53.576Z,95.30
2018-07-19T04:11:21.880Z,95.30
2018-07-19T04:13:50.220Z,95.20
2018-07-19T04:16:19.595Z,94.80
2018-07-19T04:18:47.933Z,95.00
2018-07-19T04:21:16.922Z,95.20
2018-07-19T04:23:45.259Z,94.90
2018-07-19T04:26:13.612Z,94.70
2018-07-19T04:28:41.980Z,94.60
2018-07-19T04:31:10.300Z,94.50
2018-07-19T04:33:38.647Z,94.90
2018-07-19T04:36:07.173Z,94.70
2018-07-19T04:38:35.999Z,94.70
2018-07-19T04:41:04.367Z,95.20
2018-07-19T04:43:33.896Z,95.70
2018-07-19T04:46:02.269Z,95.70
2018-07-19T04:48:30.585Z,95.70
2018-07-19T04:50:58.927Z,95.60
2018-07-19T04:53:27.475Z,95.80
2018-07-19T04:55:55.779Z,95.90
2018-07-19T04:58:24.097Z,95.90
2018-07-19T05:00:52.796Z,96.30
2018-07-19T05:03:21.392Z,95.90
2018-07-19T05:05:49.899Z,95.50
2018-07-19T05:08:18.291Z,95.30
2018-07-19T05:10:46.720Z,95.50
2018-07-19T05:13:15.269Z,95.40
2018-07-19T05:15:43.983Z,95.00
2018-07-19T05:18:12.443Z,94.80
2018-07-19T05:20:40.798Z,94.50
2018-07-19T05:23:09.146Z,94.00
2018-07-19T05:25:37.475Z,94.10
2018-07-19T05:28:05.810Z,94.30
2018-07-19T05:30:34.351Z,93.80
2018-07-19T05:33:02.672Z,93.70
2018-07-19T05:35:32.304Z,93.70
2018-07-19T05:38:00.668Z,93.70
2018-07-19T05:40:28.987Z,93.60
2018-07-19T05:42:57.372Z,93.60
2018-07-19T05:45:25.747Z,93.70
2018-07-19T05:47:54.069Z,92.90
2018-07-19T05:50:22.416Z,92.80
2018-07-19T05:52:50.760Z,92.70
2018-07-19T05:55:19.075Z,92.80
2018-07-19T05:57:47.516Z,92.70
2018-07-19T06:00:15.875Z,92.60
2018-07-19T06:02:44.256Z,92.40
2018-07-19T06:05:12.590Z,92.30
2018-07-19T06:07:40.927Z,92.50
2018-07-19T06:10:09.267Z,92.60
2018-07-19T06:12:37.603Z,91.80
2018-07-19T06:15:07.060Z,91.80
2018-07-19T06:17:36.135Z,91.70
2018-07-19T06:20:04.644Z,92.10
2018-07-19T06:22:33.055Z,91.60
2018-07-19T06:25:01.738Z,91.30
2018-07-19T06:27:30.249Z,91.40
2018-07-19T06:29:58.613Z,91.20
2018-07-19T06:32:26.925Z,91.10
2018-07-19T06:34:56.377Z,90.80
2018-07-19T06:37:24.824Z,90.90
2018-07-19T06:39:53.195Z,90.40
2018-07-19T06:42:21.548Z,90.90
2018-07-19T06:44:49.856Z,90.90
2018-07-19T06:47:18.161Z,89.70
2018-07-19T06:49:46.507Z,89.30
2018-07-19T06:52:14.995Z,88.80
2018-07-19T06:54:43.308Z,88.80
2018-07-19T06:57:11.621Z,88.40
2018-07-19T06:59:40.003Z,89.50
2018-07-19T07:02:08.956Z,88.20
2018-07-19T07:04:37.636Z,86.80
2018-07-19T07:07:06.232Z,86.70
2018-07-19T07:09:34.561Z,86.40
2018-07-19T07:12:02.880Z,86.00
2018-07-19T07:14:31.219Z,86.60
2018-07-19T07:16:59.548Z,86.90
2018-07-19T07:19:27.888Z,86.00
2018-07-19T07:21:56.257Z,85.00
2018-07-19T07:24:24.580Z,85.20
2018-07-19T07:26:52.891Z,84.90
2018-07-19T07:29:21.703Z,83.80
2018-07-19T07:31:50.024Z,84.20
2018-07-19T07:34:18.373Z,83.80
2018-07-19T07:36:46.693Z,82.00
2018-07-19T07:39:15.066Z,83.40
2018-07-19T07:41:43.455Z,81.80
2018-07-19T07:44:11.810Z,83.00
2018-07-19T07:46:40.148Z,81.80
2018-07-19T07:49:08.443Z,83.60
2018-07-19T07:51:36.792Z,82.90
2018-07-19T07:54:05.251Z,81.70
2018-07-19T07:56:34.540Z,81.00
2018-07-19T07:59:02.868Z,80.00
2018-07-19T08:01:31.199Z,78.10
2018-07-19T08:03:59.524Z,77.60
2018-07-19T08:06:27.835Z,78.50
2018-07-19T08:08:56.221Z,78.80
2018-07-19T08:11:25.043Z,79.40
2018-07-19T08:13:53.371Z,78.60
2018-07-19T08:16:21.856Z,79.30
2018-07-19T08:18:50.203Z,80.50
2018-07-19T08:21:18.647Z,79.80
2018-07-19T08:23:47.339Z,76.50
2018-07-19T08:26:15.903Z,79.40
2018-07-19T08:28:44.249Z,77.60
2018-07-19T08:31:12.645Z,77.00
2018-07-19T08:33:41.119Z,77.20
2018-07-19T08:36:09.544Z,74.70
2018-07-19T08:38:37.884Z,76.10
2018-07-19T08:41:06.255Z,75.90
2018-07-19T08:43:34.596Z,77.40
2018-07-19T08:46:02.912Z,76.80
2018-07-19T08:48:31.227Z,75.70
2018-07-19T08:50:59.565Z,76.70
2018-07-19T08:53:28.058Z,76.60
2018-07-19T08:55:56.504Z,75.00
2018-07-19T08:58:24.845Z,72.90
2018-07-19T09:00:55.680Z,73.00
2018-07-19T09:03:24.119Z,74.20
2018-07-19T09:05:52.467Z,72.50
2018-07-19T09:08:20.835Z,71.90
2018-07-19T09:10:49.648Z,73.40
2018-07-19T09:13:18.103Z,72.40
2018-07-19T09:15:46.439Z,71.90
2018-07-19T09:18:14.780Z,71.90
2018-07-19T09:20:43.105Z,69.20
2018-07-19T09:23:11.419Z,70.00
2018-07-19T09:25:39.732Z,70.70
2018-07-19T09:28:08.043Z,71.10
2018-07-19T09:30:36.371Z,70.80
2018-07-19T09:33:04.769Z,68.50
2018-07-19T09:35:33.137Z,67.60
2018-07-19T09:38:02.161Z,66.10
2018-07-19T09:40:30.483Z,66.60
2018-07-19T09:42:58.817Z,65.10
2018-07-19T09:45:27.159Z,67.10
2018-07-19T09:47:55.471Z,65.70
2018-07-19T09:50:24.055Z,66.10
2018-07-19T09:52:52.460Z,67.70
2018-07-19T09:55:20.849Z,64.70
2018-07-19T09:57:49.253Z,66.60
2018-07-19T10:00:22.927Z,67.00
2018-07-19T10:02:51.232Z,63.80
2018-07-19T10:05:20.281Z,61.30
2018-07-19T10:07:48.758Z,62.80
2018-07-19T10:10:17.197Z,60.80
2018-07-19T10:12:45.523Z,59.10
2018-07-19T10:15:13.852Z,57.80
2018-07-19T10:17:42.166Z,57.10
2018-07-19T10:20:10.496Z,59.40
2018-07-19T10:22:38.956Z,59.00
2018-07-19T10:25:07.359Z,55.10
2018-07-19T10:27:35.731Z,55.40
2018-07-19T10:30:04.964Z,56.40
2018-07-19T10:32:33.316Z,52.00
2018-07-19T10:35:02.189Z,54.20
2018-07-19T10:37:30.630Z,55.60
2018-07-19T10:39:58.919Z,55.20
2018-07-19T10:42:27.583Z,57.20
2018-07-19T10:44:56.240Z,55.40
2018-07-19T10:47:24.596Z,57.60
2018-07-19T10:49:53.151Z,56.40
2018-07-19T10:52:21.468Z,56.50
2018-07-19T10:54:50.376Z,51.40
2018-07-19T10:57:18.946Z,53.80
2018-07-19T10:59:47.247Z,53.70
2018-07-19T11:02:15.628Z,52.90
2018-07-19T11:04:43.992Z,52.00
2018-07-19T11:07:12.476Z,52.10
2018-07-19T11:09:40.860Z,51.40
2018-07-19T11:12:09.225Z,49.90
2018-07-19T11:14:37.547Z,51.40
2018-07-19T11:17:05.867Z,47.90
2018-07-19T11:19:34.181Z,49.10
2018-07-19T11:22:02.500Z,47.80
2018-07-19T11:24:30.819Z,46.80
2018-07-19T11:26:59.119Z,46.10
2018-07-19T11:29:27.468Z,45.30
2018-07-19T11:31:55.776Z,45.30
2018-07-19T11:34:24.087Z,44.20
2018-07-19T11:36:52.396Z,46.70
2018-07-19T11:39:20.723Z,45.70
2018-07-19T11:41:49.488Z,43.80
2018-07-19T11:44:17.827Z,42.60
2018-07-19T11:46:46.452Z,43.30
2018-07-19T11:49:14.774Z,45.00
2018-07-19T11:51:43.078Z,44.70
2018-07-19T11:54:11.381Z,42.60
2018-07-19T11:56:39.688Z,43.80
2018-07-19T11:59:08.015Z,42.80
2018-07-19T12:01:36.369Z,47.10
2018-07-19T12:04:04.746Z,47.30
2018-07-19T12:06:33.056Z,44.20
2018-07-19T12:09:01.397Z,42.70
2018-07-19T12:11:30.060Z,44.40
2018-07-19T12:13:58.395Z,42.00
2018-07-19T12:16:26.704Z,41.40
2018-07-19T12:18:55.125Z,42.30
2018-07-19T12:21:23.505Z,39.70
2018-07-19T12:23:51.827Z,40.20
2018-07-19T12:26:20.244Z,37.60
2018-07-19T12:28:48.556Z,37.90
2018-07-19T12:31:16.975Z,40.00
2018-07-19T12:33:45.232Z,40.70
2018-07-19T12:36:13.592Z,39.10
2018-07-19T12:38:41.891Z,39.10
2018-07-19T12:41:10.256Z,39.40
2018-07-19T12:43:38.574Z,37.00
2018-07-19T12:46:06.908Z,38.40
2018-07-19T12:48:35.216Z,37.90
2018-07-19T12:51:03.547Z,38.10
2018-07-19T12:53:31.882Z,35.20
2018-07-19T12:56:00.192Z,36.50
2018-07-19T12:58:28.511Z,36.10
2018-07-19T13:00:56.824Z,36.10
2018-07-19T13:03:26.140Z,35.20
2018-07-19T13:05:54.483Z,33.50
2018-07-19T13:08:22.792Z,36.00
2018-07-19T13:10:51.203Z,35.60
2018-07-19T13:13:20.148Z,34.00
2018-07-19T13:15:48.628Z,36.70
2018-07-19T13:18:16.966Z,35.90
2018-07-19T13:20:45.271Z,33.10
2018-07-19T13:23:13.585Z,34.10
2018-07-19T13:25:41.885Z,33.40
2018-07-19T13:28:10.287Z,33.10
2018-07-19T13:30:38.676Z,34.30
2018-07-19T13:33:06.996Z,35.00
2018-07-19T13:35:35.685Z,34.80
2018-07-19T13:38:04.052Z,34.70
2018-07-19T13:40:32.428Z,34.30
2018-07-19T13:43:01.476Z,35.20
2018-07-19T13:45:29.804Z,34.50
2018-07-19T13:47:58.276Z,35.90
2018-07-19T13:50:26.643Z,37.90
2018-07-19T13:53:06.086Z,34.50
2018-07-19T13:55:34.435Z,36.30
2018-07-19T13:58:03.332Z,36.40
2018-07-19T14:00:31.647Z,35.00
2018-07-19T14:02:59.961Z,35.50
2018-07-19T14:05:29.112Z,33.80
2018-07-19T14:07:57.456Z,34.00
2018-07-19T14:10:25.771Z,34.80
2018-07-19T14:12:54.106Z,32.40
2018-07-19T14:15:22.547Z,33.00
2018-07-19T14:17:50.856Z,33.30
2018-07-19T14:20:19.296Z,33.20
2018-07-19T14:22:47.667Z,32.60
2018-07-19T14:25:16.033Z,33.00
2018-07-19T14:27:44.339Z,34.30
2018-07-19T14:30:12.667Z,32.20
2018-07-19T14:32:41.004Z,32.00
2018-07-19T14:35:09.376Z,31.40
2018-07-19T14:37:37.703Z,30.40
2018-07-19T14:40:06.052Z,30.80
2018-07-19T14:42:34.362Z,30.20
2018-07-19T14:45:03.339Z,30.50
2018-07-19T14:47:31.632Z,30.00
2018-07-19T14:50:00.008Z,30.20
2018-07-19T14:52:28.319Z,29.90
2018-07-19T14:54:56.766Z,29.80
2018-07-19T14:57:25.097Z,31.90
2018-07-19T14:59:53.822Z,30.20
2018-07-19T15:02:22.737Z,30.00
2018-07-19T15:04:51.044Z,29.20
2018-07-19T15:07:19.906Z,31.50
2018-07-19T15:09:48.256Z,32.60
2018-07-19T15:12:16.616Z,32.50
2018-07-19T15:14:44.964Z,31.90
2018-07-19T15:17:13.275Z,31.10
2018-07-19T15:19:41.592Z,31.20
2018-07-19T15:22:09.908Z,31.70
2018-07-19T15:24:38.237Z,30.60
2018-07-19T15:27:06.588Z,31.30
2018-07-19T15:29:34.866Z,30.70
2018-07-19T15:32:03.368Z,32.00
2018-07-19T15:34:31.713Z,33.10
2018-07-19T15:37:00.044Z,33.40
2018-07-19T15:39:28.351Z,33.80
2018-07-19T15:41:56.747Z,32.60
2018-07-19T15:44:25.064Z,33.50
2018-07-19T15:46:53.383Z,30.20
2018-07-19T15:49:21.710Z,30.10
2018-07-19T15:51:50.105Z,30.90
2018-07-19T15:54:18.445Z,33.40
2018-07-19T15:56:46.760Z,33.40
2018-07-19T15:59:15.068Z,31.70
2018-07-19T16:01:43.376Z,32.80
2018-07-19T16:04:11.772Z,33.60
2018-07-19T16:06:41.368Z,33.50
2018-07-19T16:09:11.323Z,32.60
2018-07-19T16:11:40.467Z,33.10
2018-07-19T16:14:08.818Z,32.60
2018-07-19T16:16:37.559Z,33.20
2018-07-19T16:19:05.939Z,34.10
2018-07-19T16:21:34.291Z,34.10
2018-07-19T16:24:02.612Z,34.20
2018-07-19T16:26:30.919Z,35.10
2018-07-19T16:28:59.240Z,36.30
2018-07-19T16:31:27.542Z,36.90
2018-07-19T16:33:56.524Z,38.30
2018-07-19T16:36:24.911Z,39.00
2018-07-19T16:38:53.235Z,40.40
2018-07-19T16:41:21.576Z,42.10
2018-07-19T16:43:49.944Z,42.10
2018-07-19T16:46:18.286Z,43.00
2018-07-19T16:48:46.608Z,42.90
2018-07-19T16:51:14.925Z,41.50
2018-07-19T16:53:43.943Z,44.10
2018-07-19T16:56:12.271Z,43.20
2018-07-19T16:58:40.599Z,43.90
2018-07-19T17:01:08.912Z,43.90
2018-07-19T17:03:37.255Z,46.10
2018-07-19T17:06:05.566Z,44.50
2018-07-19T17:08:33.881Z,43.40
2018-07-19T17:11:02.188Z,43.90
2018-07-19T17:13:31.055Z,43.30
2018-07-19T17:15:59.388Z,44.20
2018-07-19T17:18:27.707Z,44.40
2018-07-19T17:20:56.036Z,43.50
2018-07-19T17:23:24.955Z,43.30
2018-07-19T17:25:53.273Z,42.50
2018-07-19T17:28:21.639Z,41.90
2018-07-19T17:30:50.251Z,41.60
2018-07-19T17:33:18.564Z,39.40
2018-07-19T17:35:46.875Z,42.80
2018-07-19T17:38:15.215Z,41.30
2018-07-19T17:40:43.534Z,41.90
2018-07-19T17:43:11.836Z,41.80
2018-07-19T17:45:40.183Z,42.60
2018-07-19T17:48:09.243Z,43.00
2018-07-19T17:50:37.583Z,42.50
2018-07-19T17:53:06.261Z,43.40
2018-07-19T17:55:34.584Z,44.10
2018-07-19T17:58:02.891Z,43.00
2018-07-19T18:00:31.208Z,44.90
2018-07-19T18:02:59.533Z,46.10
2018-07-19T18:05:27.851Z,45.90
2018-07-19T18:07:56.172Z,46.40
2018-07-19T18:10:24.477Z,46.90
2018-07-19T18:12:52.816Z,46.10
2018-07-19T18:15:21.124Z,46.60
2018-07-19T18:17:49.439Z,46.70
2018-07-19T18:20:17.788Z,47.90
2018-07-19T18:22:46.693Z,49.80
2018-07-19T18:25:15.672Z,51.70
2018-07-19T18:27:44.036Z,52.60
2018-07-19T18:30:12.379Z,52.10
2018-07-19T18:32:40.943Z,51.90
2018-07-19T18:35:09.273Z,52.90
2018-07-19T18:37:37.616Z,51.90
2018-07-19T18:40:05.939Z,53.80
2018-07-19T18:42:34.265Z,52.60
2018-07-19T18:45:03.339Z,51.80
2018-07-19T18:47:31.644Z,52.20
2018-07-19T18:49:59.944Z,51.20
2018-07-19T18:52:28.273Z,55.10
2018-07-19T18:54:56.713Z,51.40
2018-07-19T18:57:25.016Z,50.90
2018-07-19T18:59:53.343Z,55.70
2018-07-19T19:02:21.686Z,53.20
2018-07-19T19:04:49.997Z,56.40
2018-07-19T19:07:18.295Z,52.50
2018-07-19T19:09:46.607Z,52.70
2018-07-19T19:12:14.965Z,53.10
2018-07-19T19:14:43.303Z,53.30
2018-07-19T19:17:11.608Z,54.10
2018-07-19T19:19:39.912Z,55.80
2018-07-19T19:22:08.243Z,54.40
2018-07-19T19:24:36.559Z,55.30
2018-07-19T19:27:05.089Z,56.60
2018-07-19T19:29:33.948Z,54.50
2018-07-19T19:32:02.295Z,55.20
2018-07-19T19:34:30.645Z,55.50
2018-07-19T19:36:58.968Z,54.80
2018-07-19T19:39:27.284Z,55.40
2018-07-19T19:41:55.588Z,55.40
2018-07-19T19:44:23.927Z,56.10
2018-07-19T19:46:52.291Z,56.00
2018-07-19T19:49:20.626Z,55.50
2018-07-19T19:51:48.959Z,55.90
2018-07-19T19:54:17.383Z,56.50
2018-07-19T19:56:45.670Z,56.90
2018-07-19T19:59:14.276Z,57.90
2018-07-19T20:01:42.700Z,60.70
2018-07-19T20:04:11.663Z,63.30
2018-07-19T20:06:40.023Z,60.30
2018-07-19T20:09:09.709Z,61.10
2018-07-19T20:11:38.056Z,60.90
2018-07-19T20:14:06.427Z,60.80
2018-07-19T20:16:34.748Z,60.40
2018-07-19T20:19:03.213Z,60.40
2018-07-19T20:21:31.555Z,60.80
2018-07-19T20:24:00.688Z,61.20
2018-07-19T20:26:29.027Z,61.70
2018-07-19T20:28:59.438Z,62.90
2018-07-19T20:31:29.098Z,64.10
2018-07-19T20:33:58.136Z,65.00
2018-07-19T20:36:26.636Z,65.50
2018-07-19T20:38:55.743Z,65.90
2018-07-19T20:41:24.128Z,66.40
2018-07-19T20:43:52.874Z,66.90
2018-07-19T20:46:21.506Z,67.60
2018-07-19T20:48:50.278Z,68.20
2018-07-19T20:51:18.833Z,69.00
2018-07-19T20:53:48.305Z,69.00
2018-07-19T20:56:17.011Z,69.00
2018-07-19T20:58:45.711Z,69.30
2018-07-19T21:01:14.664Z,69.50
2018-07-19T21:03:43.528Z,70.20
2018-07-19T21:06:11.936Z,70.80
2018-07-19T21:08:40.512Z,71.30
2018-07-19T21:11:09.056Z,71.50
2018-07-19T21:13:37.634Z,71.40
2018-07-19T21:16:06.915Z,72.20
2018-07-19T21:18:35.617Z,72.60
2018-07-19T21:21:04.132Z,73.40
2018-07-19T21:23:32.440Z,74.30
2018-07-19T21:26:01.043Z,75.30
2018-07-19T21:28:29.720Z,75.70
2018-07-19T21:30:58.324Z,76.30
2018-07-19T21:33:26.871Z,76.30
2018-07-19T21:35:55.180Z,76.50
2018-07-19T21:38:23.505Z,76.90
2018-07-19T21:40:54.389Z,76.80
2018-07-19T21:43:22.897Z,76.70
2018-07-19T21:45:51.333Z,76.80
2018-07-19T21:48:19.919Z,76.80
2018-07-19T21:50:48.540Z,77.00
2018-07-19T21:53:17.879Z,77.40
2018-07-19T21:55:47.137Z,78.30
2018-07-19T21:58:15.796Z,79.10
2018-07-19T22:03:18.783Z,80.20
2018-07-19T22:05:47.438Z,80.60
2018-07-19T22:08:16.058Z,80.80
2018-07-19T22:10:44.441Z,80.90
2018-07-19T22:13:12.777Z,81.40
2018-07-19T22:15:41.534Z,81.60
2018-07-19T22:18:10.156Z,81.70
2018-07-19T22:20:38.828Z,81.90
2018-07-19T22:23:07.234Z,82.00
2018-07-19T22:25:36.286Z,82.10
2018-07-19T22:28:05.080Z,82.00
2018-07-19T22:30:33.512Z,82.20
2018-07-19T22:33:01.914Z,82.40
2018-07-19T22:35:30.210Z,82.50
2018-07-19T22:37:58.524Z,82.80
2018-07-19T22:40:26.832Z,83.40
2018-07-19T22:42:55.190Z,83.70
2018-07-19T22:45:23.538Z,83.80
2018-07-19T22:47:51.847Z,83.60
2018-07-19T22:50:20.206Z,83.60
2018-07-19T22:52:48.554Z,83.60
2018-07-19T22:55:16.871Z,83.70
2018-07-19T22:57:45.195Z,83.40
2018-07-19T23:00:13.521Z,83.20
2018-07-19T23:02:41.828Z,83.20
2018-07-19T23:05:10.172Z,83.40
2018-07-19T23:07:38.600Z,83.70
2018-07-19T23:10:07.176Z,84.00
2018-07-19T23:12:35.501Z,84.20
2018-07-19T23:15:04.171Z,84.50
2018-07-19T23:17:32.488Z,84.40
2018-07-19T23:20:01.668Z,84.70
2018-07-19T23:22:29.985Z,85.50
2018-07-19T23:24:58.304Z,84.30
2018-07-19T23:27:26.624Z,84.20
2018-07-19T23:29:54.973Z,84.20
2018-07-19T23:32:23.331Z,84.30
2018-07-19T23:34:51.752Z,84.90
2018-07-19T23:37:23.319Z,86.00
2018-07-19T23:39:57.386Z,86.30
2018-07-19T23:42:29.989Z,86.20
2018-07-19T23:47:06.421Z,86.20
2018-07-19T23:49:35.136Z,86.00
2018-07-19T23:52:03.436Z,85.30
2018-07-19T23:54:31.771Z,84.90
2018-07-19T23:57:00.164Z,84.60
2018-07-19T23:59:28.583Z,84.30
